createdAt,value
2023-06-15T00:01:29.887Z,92.90
2023-06-15T00:05:55.528Z,93.10
2023-06-15T00:10:21.182Z,93.30
2023-06-15T00:14:46.604Z,93.40
2023-06-15T00:19:13.166Z,93.60
2023-06-15T00:23:38.483Z,93.80
2023-06-15T00:28:04.223Z,94.10
2023-06-15T00:32:29.987Z,94.30
2023-06-15T00:36:55.429Z,94.50
2023-06-15T00:41:21.107Z,94.70
2023-06-15T00:45:46.631Z,94.90
2023-06-15T00:50:16.324Z,95.20
2023-06-15T00:54:44.520Z,95.40
2023-06-15T00:59:09.780Z,95.70
2023-06-15T01:03:37.089Z,95.90
2023-06-15T01:08:08.461Z,96.00
2023-06-15T01:12:34.279Z,96.30
2023-06-15T01:17:06.721Z,96.60
2023-06-15T01:21:32.321Z,97.00
2023-06-15T01:26:04.372Z,97.20
2023-06-15T01:30:35.972Z,97.40
2023-06-15T01:35:01.751Z,97.50
2023-06-15T01:39:27.031Z,97.80
2023-06-15T01:43:53.560Z,98.00
2023-06-15T01:48:19.578Z,98.20
2023-06-15T01:52:45.637Z,98.50
2023-06-15T01:57:11.868Z,98.60
2023-06-15T02:01:37.120Z,98.90
2023-06-15T02:06:02.571Z,99.10
2023-06-15T02:10:28.397Z,99.40
2023-06-15T02:14:53.676Z,99.80
2023-06-15T02:19:22.196Z,99.90
2023-06-15T02:23:48.270Z,99.90
2023-06-15T02:28:13.556Z,99.90
2023-06-15T02:32:41.230Z,99.90
2023-06-15T02:37:06.997Z,99.90
2023-06-15T02:41:32.641Z,99.90
2023-06-15T02:45:58.142Z,99.90
2023-06-15T02:50:23.513Z,99.90
2023-06-15T02:54:48.837Z,99.90
2023-06-15T02:59:14.273Z,99.90
2023-06-15T03:03:41.789Z,99.90
2023-06-15T03:08:07.651Z,99.90
2023-06-15T03:12:33.040Z,99.90
2023-06-15T03:16:58.595Z,99.90
2023-06-15T03:21:24.472Z,99.90
2023-06-15T03:25:53.276Z,99.90
2023-06-15T03:30:18.725Z,99.90
2023-06-15T03:34:47.404Z,99.90
2023-06-15T03:39:13.519Z,99.90
2023-06-15T03:43:39.021Z,99.90
2023-06-15T03:48:05.206Z,99.90
2023-06-15T03:52:33.754Z,99.90
2023-06-15T03:56:59.497Z,99.90
2023-06-15T04:01:26.175Z,99.90
2023-06-15T04:05:51.631Z,99.90
2023-06-15T04:10:17.045Z,99.90
2023-06-15T04:14:43.368Z,99.90
2023-06-15T04:19:08.982Z,99.90
2023-06-15T04:23:34.680Z,99.90
2023-06-15T04:28:00.217Z,99.90
2023-06-15T04:32:26.864Z,99.90
2023-06-15T04:36:52.732Z,99.90
2023-06-15T04:41:24.095Z,99.90
2023-06-15T04:45:49.862Z,99.90
2023-06-15T04:50:15.479Z,99.90
2023-06-15T04:54:41.071Z,99.90
2023-06-15T04:59:06.676Z,99.90
2023-06-15T05:03:34.254Z,99.90
2023-06-15T05:08:00.109Z,99.90
2023-06-15T05:12:25.908Z,99.90
2023-06-15T05:16:51.619Z,99.90
2023-06-15T05:21:18.909Z,99.90
2023-06-15T05:25:45.690Z,99.90
2023-06-15T05:30:12.894Z,99.90
2023-06-15T05:34:38.324Z,99.90
2023-06-15T05:39:04.628Z,99.90
2023-06-15T05:43:29.873Z,99.90
2023-06-15T05:47:55.193Z,99.90
2023-06-15T05:52:20.772Z,99.90
2023-06-15T05:56:46.328Z,99.90
2023-06-15T06:01:11.929Z,99.90
2023-06-15T06:05:38.138Z,99.90
2023-06-15T06:10:04.329Z,99.90
2023-06-15T06:14:30.020Z,99.90
2023-06-15T06:18:56.440Z,99.30
2023-06-15T06:23:21.837Z,98.30
2023-06-15T06:27:47.333Z,97.80
2023-06-15T06:32:12.852Z,98.70
2023-06-15T06:36:38.255Z,98.80
2023-06-15T06:41:03.980Z,98.10
2023-06-15T06:45:30.541Z,97.00
2023-06-15T06:49:56.036Z,96.60
2023-06-15T06:54:21.664Z,97.60
2023-06-15T06:58:47.042Z,96.40
2023-06-15T07:03:12.731Z,97.20
2023-06-15T07:07:38.131Z,97.20
2023-06-15T07:12:03.632Z,96.80
2023-06-15T07:16:29.223Z,95.70
2023-06-15T07:20:55.153Z,95.80
2023-06-15T07:25:20.761Z,94.90
2023-06-15T07:29:46.501Z,94.90
2023-06-15T07:34:11.690Z,94.80
2023-06-15T07:38:38.373Z,95.10
2023-06-15T07:43:03.574Z,94.90
2023-06-15T07:47:28.953Z,94.60
2023-06-15T07:52:04.419Z,94.50
2023-06-15T07:56:35.062Z,94.80
2023-06-15T08:01:00.584Z,93.50
2023-06-15T08:05:26.044Z,93.60
2023-06-15T08:09:51.493Z,93.70
2023-06-15T08:14:17.365Z,93.40
2023-06-15T08:18:42.680Z,92.90
2023-06-15T08:23:08.441Z,92.80
2023-06-15T08:27:33.522Z,92.20
2023-06-15T08:31:59.155Z,91.90
2023-06-15T08:36:24.457Z,91.90
2023-06-15T08:40:50.136Z,92.20
2023-06-15T08:45:16.986Z,91.10
2023-06-15T08:49:42.390Z,90.90
2023-06-15T08:54:09.876Z,89.50
2023-06-15T08:58:35.345Z,88.60
2023-06-15T09:03:02.217Z,87.10
2023-06-15T09:07:30.587Z,85.40
2023-06-15T09:11:56.022Z,84.80
2023-06-15T09:16:21.508Z,85.30
2023-06-15T09:20:49.074Z,84.60
2023-06-15T09:25:15.265Z,81.50
2023-06-15T09:29:41.348Z,82.50
2023-06-15T09:34:08.968Z,81.20
2023-06-15T09:38:42.720Z,81.50
2023-06-15T09:43:08.288Z,79.30
2023-06-15T09:47:33.978Z,78.10
2023-06-15T09:52:01.269Z,77.70
2023-06-15T09:56:31.416Z,75.00
2023-06-15T10:00:59.340Z,73.90
2023-06-15T10:05:35.302Z,74.20
2023-06-15T10:10:02.230Z,72.60
2023-06-15T10:14:37.634Z,74.90
2023-06-15T10:19:06.953Z,73.00
2023-06-15T10:23:42.114Z,73.50
2023-06-15T10:28:12.508Z,72.20
2023-06-15T10:33:08.275Z,72.20
2023-06-15T10:37:45.006Z,69.60
2023-06-15T10:42:13.245Z,72.10
2023-06-15T10:46:39.063Z,72.80
2023-06-15T10:51:05.735Z,74.10
2023-06-15T10:55:33.030Z,70.20
2023-06-15T10:59:59.407Z,70.60
2023-06-15T11:04:32.663Z,71.70
2023-06-15T11:09:09.877Z,76.00
2023-06-15T11:13:35.226Z,71.50
2023-06-15T11:18:20.059Z,70.20
2023-06-15T11:22:47.477Z,70.50
2023-06-15T11:27:15.125Z,69.40
2023-06-15T11:31:43.989Z,68.90
2023-06-15T11:36:11.374Z,66.40
2023-06-15T11:40:36.764Z,65.30
2023-06-15T11:45:02.314Z,68.70
2023-06-15T11:49:36.881Z,69.10
2023-06-15T11:54:03.619Z,64.10
2023-06-15T11:58:28.894Z,63.60
2023-06-15T12:02:57.595Z,62.40
2023-06-15T12:07:37.234Z,60.40
2023-06-15T12:12:04.364Z,61.50
2023-06-15T12:16:31.262Z,59.60
2023-06-15T12:20:56.999Z,59.10
2023-06-15T12:25:47.691Z,58.60
2023-06-15T12:30:18.273Z,59.30
2023-06-15T12:34:44.237Z,56.90
2023-06-15T12:39:10.886Z,56.00
2023-06-15T12:43:36.410Z,57.90
2023-06-15T12:48:02.395Z,58.00
2023-06-15T12:52:28.403Z,57.90
2023-06-15T12:56:53.694Z,56.70
2023-06-15T13:01:19.011Z,54.90
2023-06-15T13:05:44.386Z,60.70
2023-06-15T13:10:10.424Z,54.80
2023-06-15T13:14:36.051Z,55.20
2023-06-15T13:19:01.480Z,54.30
2023-06-15T13:23:27.035Z,52.80
2023-06-15T13:27:52.797Z,53.30
2023-06-15T13:32:19.169Z,51.00
2023-06-15T13:36:44.384Z,50.50
2023-06-15T13:41:09.833Z,50.80
2023-06-15T13:45:35.409Z,52.00
2023-06-15T13:50:00.976Z,52.50
2023-06-15T13:54:26.246Z,54.00
2023-06-15T13:58:52.354Z,54.10
2023-06-15T14:03:18.464Z,54.70
2023-06-15T14:07:44.108Z,56.50
2023-06-15T14:12:09.782Z,54.30
2023-06-15T14:16:35.495Z,53.60
2023-06-15T14:21:01.217Z,53.50
2023-06-15T14:25:26.567Z,55.10
2023-06-15T14:29:51.781Z,52.00
2023-06-15T14:34:18.965Z,52.70
2023-06-15T14:38:44.366Z,52.80
2023-06-15T14:43:09.984Z,54.90
2023-06-15T14:47:36.594Z,55.80
2023-06-15T14:52:02.238Z,57.70
2023-06-15T14:56:28.630Z,55.90
2023-06-15T15:00:54.244Z,55.10
2023-06-15T15:05:19.804Z,55.50
2023-06-15T15:09:47.225Z,54.50
2023-06-15T15:14:14.275Z,55.60
2023-06-15T15:18:40.511Z,57.70
2023-06-15T15:23:06.654Z,55.90
2023-06-15T15:27:32.364Z,56.50
2023-06-15T15:31:57.782Z,57.30
2023-06-15T15:36:23.250Z,58.00
2023-06-15T15:40:48.815Z,56.40
2023-06-15T15:45:14.351Z,56.20
2023-06-15T15:49:40.034Z,54.90
2023-06-15T15:54:05.844Z,55.20
2023-06-15T15:58:31.215Z,55.60
2023-06-15T16:02:57.137Z,56.50
2023-06-15T16:07:22.796Z,58.60
2023-06-15T16:11:48.441Z,57.70
2023-06-15T16:16:28.278Z,57.20
2023-06-15T16:20:54.377Z,58.80
2023-06-15T16:25:20.038Z,58.70
2023-06-15T16:29:45.452Z,58.00
2023-06-15T16:34:11.163Z,59.10
2023-06-15T16:38:36.696Z,58.40
2023-06-15T16:43:02.426Z,59.10
2023-06-15T16:47:28.523Z,59.70
2023-06-15T16:51:53.711Z,57.20
2023-06-15T16:56:19.411Z,59.80
2023-06-15T17:00:45.036Z,58.00
2023-06-15T17:05:10.888Z,57.60
2023-06-15T17:09:41.430Z,59.30
2023-06-15T17:14:06.889Z,58.00
2023-06-15T17:18:32.310Z,58.00
2023-06-15T17:22:57.860Z,58.70
2023-06-15T17:27:23.298Z,58.20
2023-06-15T17:31:48.803Z,59.20
2023-06-15T17:36:14.418Z,60.00
2023-06-15T17:40:40.016Z,59.60
2023-06-15T17:45:06.658Z,59.30
2023-06-15T17:49:32.071Z,60.40
2023-06-15T17:53:57.478Z,60.00
2023-06-15T17:58:23.411Z,64.60
2023-06-15T18:02:49.146Z,68.10
2023-06-15T18:07:14.486Z,69.40
2023-06-15T18:11:40.926Z,70.00
2023-06-15T18:16:06.470Z,70.40
2023-06-15T18:20:31.830Z,71.10
2023-06-15T18:24:57.286Z,72.10
2023-06-15T18:29:22.888Z,71.70
2023-06-15T18:33:48.303Z,73.10
2023-06-15T18:38:13.638Z,73.70
2023-06-15T18:42:40.033Z,73.50
2023-06-15T18:47:06.905Z,73.70
2023-06-15T18:51:32.049Z,73.80
2023-06-15T18:55:57.944Z,73.70
2023-06-15T19:00:23.343Z,75.50
2023-06-15T19:04:49.031Z,75.50
2023-06-15T19:09:14.170Z,76.40
2023-06-15T19:13:39.750Z,76.30
2023-06-15T19:18:05.382Z,76.60
2023-06-15T19:22:31.309Z,76.30
2023-06-15T19:26:57.159Z,76.20
2023-06-15T19:31:22.616Z,77.10
2023-06-15T19:35:48.187Z,75.90
2023-06-15T19:40:13.838Z,76.60
2023-06-15T19:44:39.555Z,76.30
2023-06-15T19:49:04.930Z,76.10
2023-06-15T19:53:35.251Z,75.80
2023-06-15T19:58:00.663Z,76.10
2023-06-15T20:02:26.389Z,76.20
2023-06-15T20:06:52.201Z,76.20
2023-06-15T20:11:17.592Z,76.50
2023-06-15T20:15:42.911Z,76.70
2023-06-15T20:20:08.993Z,76.90
2023-06-15T20:24:34.992Z,77.20
2023-06-15T20:29:00.507Z,77.70
2023-06-15T20:33:27.658Z,77.80
2023-06-15T20:37:52.915Z,77.70
2023-06-15T20:42:18.468Z,77.50
2023-06-15T20:46:44.510Z,77.70
2023-06-15T20:51:10.072Z,77.40
2023-06-15T20:55:35.773Z,77.40
2023-06-15T21:00:01.243Z,77.70
2023-06-15T21:04:26.975Z,79.00
2023-06-15T21:08:53.041Z,80.00
2023-06-15T21:13:18.636Z,78.90
2023-06-15T21:17:45.405Z,79.80
2023-06-15T21:22:10.961Z,79.20
2023-06-15T21:26:36.400Z,78.80
2023-06-15T21:31:02.379Z,80.50
2023-06-15T21:35:28.106Z,84.10
2023-06-15T21:39:53.615Z,85.70
2023-06-15T21:44:19.250Z,85.80
2023-06-15T21:48:44.900Z,85.40
2023-06-15T21:53:10.748Z,85.10
2023-06-15T21:57:39.096Z,83.30
2023-06-15T22:02:04.948Z,82.00
2023-06-15T22:06:30.064Z,82.50
2023-06-15T22:10:55.414Z,83.20
2023-06-15T22:15:20.947Z,84.20
2023-06-15T22:19:50.484Z,86.80
2023-06-15T22:24:15.965Z,87.50
2023-06-15T22:28:41.864Z,88.70
2023-06-15T22:33:07.379Z,89.00
2023-06-15T22:37:32.724Z,90.00
2023-06-15T22:41:58.414Z,90.40
2023-06-15T22:46:25.241Z,90.50
2023-06-15T22:50:57.979Z,90.90
2023-06-15T22:55:24.662Z,91.50
2023-06-15T22:59:50.202Z,90.80
2023-06-15T23:04:15.953Z,90.60
2023-06-15T23:08:41.554Z,91.40
2023-06-15T23:13:09.204Z,91.80
2023-06-15T23:17:34.920Z,92.00
2023-06-15T23:22:01.896Z,92.10
2023-06-15T23:26:30.713Z,92.50
2023-06-15T23:30:56.163Z,93.30
2023-06-15T23:35:21.481Z,93.30
2023-06-15T23:39:47.086Z,93.90
2023-06-15T23:44:13.187Z,94.00
2023-06-15T23:48:38.686Z,93.80
2023-06-15T23:53:05.422Z,94.10
2023-06-15T23:57:30.672Z,94.50
